createdAt,value
2022-11-26T00:02:18.359Z,7.83
2022-11-26T00:05:07.410Z,7.20
2022-11-26T00:07:59.032Z,7.13
2022-11-26T00:10:50.244Z,6.73
2022-11-26T00:13:38.668Z,7.07
2022-11-26T00:16:27.767Z,7.47
2022-11-26T00:19:16.360Z,7.60
2022-11-26T00:22:04.881Z,6.10
2022-11-26T00:24:54.390Z,7.50
2022-11-26T00:27:44.232Z,7.07
2022-11-26T00:30:32.724Z,7.30
2022-11-26T00:33:21.135Z,6.87
2022-11-26T00:36:17.371Z,6.40
2022-11-26T00:39:07.915Z,7.50
2022-11-26T00:41:56.655Z,6.80
2022-11-26T00:44:46.564Z,6.70
2022-11-26T00:47:35.056Z,6.80
2022-11-26T00:50:25.181Z,6.97
2022-11-26T00:53:15.929Z,5.73
2022-11-26T00:56:04.493Z,6.33
2022-11-26T00:58:53.025Z,6.50
2022-11-26T01:01:42.907Z,6.57
2022-11-26T01:04:31.382Z,6.43
2022-11-26T01:07:19.954Z,7.30
2022-11-26T01:10:17.436Z,6.70
2022-11-26T01:13:07.813Z,6.03
2022-11-26T01:15:56.892Z,7.00
2022-11-26T01:18:46.931Z,6.00
2022-11-26T01:21:35.405Z,5.90
2022-11-26T01:24:23.874Z,5.33
2022-11-26T01:27:13.142Z,7.30
2022-11-26T01:30:01.601Z,6.53
2022-11-26T01:32:51.065Z,6.40
2022-11-26T01:35:41.040Z,5.90
2022-11-26T01:38:29.518Z,5.93
2022-11-26T01:41:24.757Z,6.20
2022-11-26T01:44:19.055Z,6.37
2022-11-26T01:47:21.347Z,6.07
2022-11-26T01:50:49.609Z,7.00
2022-11-26T01:53:49.271Z,5.43
2022-11-26T01:56:39.680Z,6.83
2022-11-26T01:59:30.267Z,6.30
2022-11-26T02:02:19.307Z,6.10
2022-11-26T02:05:11.312Z,7.37
2022-11-26T02:08:01.905Z,6.83
2022-11-26T02:10:52.346Z,6.60
2022-11-26T02:13:40.893Z,5.83
2022-11-26T02:17:03.794Z,6.03
2022-11-26T02:20:28.764Z,7.33
2022-11-26T02:23:59.959Z,6.63
2022-11-26T02:27:31.357Z,7.13
2022-11-26T02:30:21.419Z,5.83
2022-11-26T02:33:13.111Z,6.43
2022-11-26T02:36:06.246Z,6.50
2022-11-26T02:38:54.749Z,7.20
2022-11-26T02:41:44.799Z,7.10
2022-11-26T02:44:43.696Z,6.70
2022-11-26T02:47:33.963Z,6.50
2022-11-26T02:50:25.546Z,6.80
2022-11-26T02:53:14.854Z,7.83
2022-11-26T02:56:05.885Z,7.50
2022-11-26T02:58:55.603Z,7.30
2022-11-26T03:01:52.639Z,6.97
2022-11-26T03:04:45.378Z,7.10
2022-11-26T03:07:35.413Z,7.27
2022-11-26T03:10:26.778Z,7.20
2022-11-26T03:13:15.253Z,6.87
2022-11-26T03:16:04.410Z,6.90
2022-11-26T03:18:52.881Z,6.67
2022-11-26T03:21:42.705Z,6.30
2022-11-26T03:24:31.568Z,6.90
2022-11-26T03:27:20.092Z,6.80
2022-11-26T03:30:09.414Z,7.57
2022-11-26T03:32:57.962Z,7.10
2022-11-26T03:35:48.304Z,8.00
2022-11-26T03:38:38.099Z,7.03
2022-11-26T03:41:26.820Z,7.50
2022-11-26T03:44:15.731Z,7.27
2022-11-26T03:47:04.432Z,8.53
2022-11-26T03:49:52.945Z,7.27
2022-11-26T03:52:41.443Z,7.67
2022-11-26T03:55:31.237Z,7.97
2022-11-26T03:58:19.741Z,7.00
2022-11-26T04:01:09.817Z,5.90
2022-11-26T04:03:58.374Z,7.10
2022-11-26T04:06:46.863Z,6.90
2022-11-26T04:09:35.335Z,9.13
2022-11-26T04:12:25.141Z,7.97
2022-11-26T04:15:13.592Z,8.70
2022-11-26T04:18:02.071Z,8.03
2022-11-26T04:20:53.324Z,7.23
2022-11-26T04:23:42.087Z,7.00
2022-11-26T04:26:30.696Z,8.40
2022-11-26T04:29:20.659Z,6.90
2022-11-26T04:32:09.238Z,7.13
2022-11-26T04:34:57.800Z,7.53
2022-11-26T04:37:46.435Z,7.73
2022-11-26T04:40:35.015Z,7.83
2022-11-26T04:43:23.538Z,7.80
2022-11-26T04:46:13.397Z,6.40
2022-11-26T04:49:01.914Z,6.77
2022-11-26T04:51:50.403Z,8.20
2022-11-26T04:54:39.372Z,6.90
2022-11-26T04:57:28.048Z,7.60
2022-11-26T05:00:17.864Z,8.03
2022-11-26T05:03:07.817Z,7.43
2022-11-26T05:05:56.337Z,8.10
2022-11-26T05:08:44.797Z,7.70
2022-11-26T05:11:33.326Z,8.03
2022-11-26T05:14:21.798Z,8.10
2022-11-26T05:17:10.282Z,7.60
2022-11-26T05:20:00.111Z,7.73
2022-11-26T05:22:48.584Z,7.70
2022-11-26T05:25:37.100Z,7.30
2022-11-26T05:28:25.556Z,6.10
2022-11-26T05:31:14.063Z,6.40
2022-11-26T05:34:02.549Z,6.70
2022-11-26T05:36:52.383Z,6.30
2022-11-26T05:39:40.909Z,6.83
2022-11-26T05:42:29.398Z,8.10
2022-11-26T05:45:18.166Z,7.73
2022-11-26T05:48:06.971Z,7.23
2022-11-26T05:50:58.194Z,6.87
2022-11-26T05:53:47.976Z,7.17
2022-11-26T05:56:36.413Z,8.00
2022-11-26T05:59:24.880Z,7.20
2022-11-26T06:02:13.602Z,12.00
2022-11-26T06:05:02.150Z,21.03
2022-11-26T06:07:50.761Z,21.80
2022-11-26T06:10:42.667Z,9.07
2022-11-26T06:13:31.119Z,7.90
2022-11-26T06:16:19.686Z,10.17
2022-11-26T06:19:08.213Z,11.13
2022-11-26T06:21:56.722Z,9.40
2022-11-26T06:24:45.208Z,9.00
2022-11-26T06:27:35.355Z,10.77
2022-11-26T06:30:23.854Z,10.17
2022-11-26T06:33:12.356Z,11.30
2022-11-26T06:36:01.427Z,11.03
2022-11-26T06:38:49.906Z,11.73
2022-11-26T06:41:38.569Z,9.90
2022-11-26T06:44:28.398Z,12.50
2022-11-26T06:47:17.343Z,10.43
2022-11-26T06:50:10.706Z,11.10
2022-11-26T06:52:59.531Z,11.43
2022-11-26T06:55:48.423Z,12.00
2022-11-26T06:58:37.012Z,10.60
2022-11-26T07:01:27.634Z,10.63
2022-11-26T07:04:16.174Z,10.93
2022-11-26T07:07:04.615Z,11.77
2022-11-26T07:09:53.066Z,10.70
2022-11-26T07:12:41.475Z,12.10
2022-11-26T07:15:29.990Z,11.00
2022-11-26T07:18:19.746Z,11.20
2022-11-26T07:21:09.753Z,11.10
2022-11-26T07:23:59.019Z,12.77
2022-11-26T07:26:47.571Z,13.17
2022-11-26T07:29:36.005Z,11.43
2022-11-26T07:32:24.928Z,11.13
2022-11-26T07:35:14.729Z,11.73
2022-11-26T07:38:03.218Z,11.90
2022-11-26T07:40:51.696Z,12.10
2022-11-26T07:43:41.321Z,11.90
2022-11-26T07:46:29.832Z,13.13
2022-11-26T07:49:18.368Z,12.93
2022-11-26T07:52:08.267Z,12.50
2022-11-26T07:54:56.753Z,11.40
2022-11-26T07:57:45.433Z,10.20
2022-11-26T08:00:33.898Z,12.07
2022-11-26T08:03:22.378Z,12.70
2022-11-26T08:06:12.742Z,12.87
2022-11-26T08:09:03.552Z,11.67
2022-11-26T08:11:52.013Z,12.40
2022-11-26T08:14:40.841Z,13.50
2022-11-26T08:17:29.329Z,12.13
2022-11-26T08:20:18.015Z,11.53
2022-11-26T08:23:06.466Z,12.60
2022-11-26T08:26:21.419Z,11.23
2022-11-26T08:29:05.587Z,11.13
2022-11-26T08:31:54.185Z,11.63
2022-11-26T08:34:42.802Z,11.77
2022-11-26T08:37:31.271Z,11.67
2022-11-26T08:40:20.066Z,11.97
2022-11-26T08:43:11.161Z,11.57
2022-11-26T08:46:01.119Z,10.93
2022-11-26T08:48:51.012Z,12.57
2022-11-26T08:51:39.616Z,12.17
2022-11-26T08:54:28.136Z,12.50
2022-11-26T08:57:16.639Z,13.10
2022-11-26T09:00:08.022Z,13.07
2022-11-26T09:02:56.517Z,12.33
2022-11-26T09:05:45.061Z,12.73
2022-11-26T09:08:44.705Z,13.60
2022-11-26T09:11:35.100Z,12.27
2022-11-26T09:14:26.624Z,12.73
2022-11-26T09:17:16.691Z,11.87
2022-11-26T09:20:05.875Z,11.70
2022-11-26T09:22:54.366Z,11.60
2022-11-26T09:25:42.863Z,12.77
2022-11-26T09:28:31.360Z,12.10
2022-11-26T09:31:20.294Z,12.43
2022-11-26T09:34:11.021Z,10.73
2022-11-26T09:36:59.547Z,11.80
2022-11-26T09:39:47.977Z,11.60
2022-11-26T09:42:44.786Z,11.47
2022-11-26T09:45:39.628Z,11.23
2022-11-26T09:48:30.073Z,10.93
2022-11-26T09:51:20.489Z,12.20
2022-11-26T09:54:11.217Z,11.77
2022-11-26T09:57:10.982Z,12.13
2022-11-26T09:59:59.568Z,12.77
2022-11-26T10:02:48.039Z,11.53
2022-11-26T10:05:43.615Z,11.10
2022-11-26T10:09:00.442Z,10.80
2022-11-26T10:11:53.642Z,11.13
2022-11-26T10:14:52.499Z,10.10
2022-11-26T10:17:44.860Z,10.20
2022-11-26T10:20:54.890Z,9.23
2022-11-26T10:23:47.133Z,10.50
2022-11-26T10:26:38.155Z,9.40
2022-11-26T10:29:29.110Z,10.20
2022-11-26T10:32:21.585Z,8.27
2022-11-26T10:35:15.416Z,9.73
2022-11-26T10:38:04.336Z,9.40
2022-11-26T10:40:54.206Z,9.07
2022-11-26T10:43:42.798Z,8.13
2022-11-26T10:46:34.198Z,8.53
2022-11-26T10:49:24.948Z,8.90
2022-11-26T10:52:17.022Z,10.00
2022-11-26T10:55:19.300Z,8.30
2022-11-26T10:58:15.855Z,9.00
2022-11-26T11:01:04.964Z,8.00
2022-11-26T11:04:11.008Z,8.03
2022-11-26T11:07:00.017Z,9.60
2022-11-26T11:09:48.536Z,8.10
2022-11-26T11:12:37.094Z,7.03
2022-11-26T11:15:29.082Z,8.40
2022-11-26T11:18:20.513Z,7.10
2022-11-26T11:21:16.732Z,7.00
2022-11-26T11:24:17.737Z,6.70
2022-11-26T11:27:06.235Z,7.57
2022-11-26T11:29:54.736Z,7.00
2022-11-26T11:32:44.553Z,7.40
2022-11-26T11:35:33.078Z,7.20
2022-11-26T11:38:24.556Z,7.57
2022-11-26T11:41:20.272Z,7.80
2022-11-26T11:44:18.966Z,8.97
2022-11-26T11:47:20.538Z,9.07
2022-11-26T11:50:18.833Z,8.33
2022-11-26T11:53:21.227Z,6.80
2022-11-26T11:56:22.077Z,6.73
2022-11-26T11:59:21.214Z,6.00
2022-11-26T12:02:30.573Z,6.20
2022-11-26T12:05:38.048Z,5.57
2022-11-26T12:08:34.518Z,5.97
2022-11-26T12:11:37.951Z,5.60
2022-11-26T12:14:30.316Z,5.80
2022-11-26T12:17:22.296Z,6.90
2022-11-26T12:20:20.360Z,5.80
2022-11-26T12:23:24.527Z,5.60
2022-11-26T12:26:15.777Z,5.50
2022-11-26T12:29:07.061Z,6.67
2022-11-26T12:31:59.278Z,6.53
2022-11-26T12:34:51.439Z,5.83
2022-11-26T12:37:41.537Z,6.20
2022-11-26T12:40:33.271Z,5.47
2022-11-26T12:43:29.272Z,5.27
2022-11-26T12:46:21.685Z,6.60
2022-11-26T12:49:19.350Z,5.40
2022-11-26T12:52:32.468Z,5.90
2022-11-26T12:55:24.142Z,6.43
2022-11-26T12:58:17.274Z,5.77
2022-11-26T13:01:05.969Z,5.97
2022-11-26T13:04:14.343Z,5.63
2022-11-26T13:07:10.957Z,6.63
2022-11-26T13:10:07.482Z,6.10
2022-11-26T13:13:02.702Z,6.37
2022-11-26T13:16:01.063Z,6.00
2022-11-26T13:18:51.943Z,5.50
2022-11-26T13:21:58.699Z,6.20
2022-11-26T13:24:59.527Z,5.83
2022-11-26T13:27:56.421Z,6.97
2022-11-26T13:30:50.051Z,6.57
2022-11-26T13:34:22.482Z,6.53
2022-11-26T13:37:34.208Z,5.97
2022-11-26T13:40:53.577Z,6.90
2022-11-26T13:44:10.702Z,5.20
2022-11-26T13:47:00.857Z,7.37
2022-11-26T13:49:55.911Z,7.07
2022-11-26T13:52:47.948Z,8.03
2022-11-26T13:55:39.014Z,6.57
2022-11-26T13:58:31.097Z,7.20
2022-11-26T14:01:31.390Z,7.17
2022-11-26T14:04:52.789Z,6.47
2022-11-26T14:07:43.297Z,7.10
2022-11-26T14:10:44.373Z,6.10
2022-11-26T14:13:32.852Z,7.07
2022-11-26T14:16:21.319Z,6.60
2022-11-26T14:19:09.866Z,6.60
2022-11-26T14:22:00.014Z,6.93
2022-11-26T14:24:57.471Z,6.43
2022-11-26T14:27:53.585Z,6.30
2022-11-26T14:30:42.042Z,6.20
2022-11-26T14:33:30.539Z,8.23
2022-11-26T14:36:23.164Z,5.80
2022-11-26T14:39:13.915Z,57.07
2022-11-26T14:42:06.356Z,11.90
2022-11-26T14:45:02.733Z,10.80
2022-11-26T14:47:52.481Z,5.13
2022-11-26T14:50:41.117Z,5.47
2022-11-26T14:53:31.509Z,5.43
2022-11-26T14:56:21.011Z,5.37
2022-11-26T14:59:15.614Z,5.33
2022-11-26T15:02:04.367Z,4.80
2022-11-26T15:04:59.759Z,5.50
2022-11-26T15:07:58.603Z,5.60
2022-11-26T15:10:50.516Z,6.07
2022-11-26T15:13:40.532Z,5.37
2022-11-26T15:16:33.576Z,4.60
2022-11-26T15:19:22.389Z,4.97
2022-11-26T15:22:20.577Z,4.53
2022-11-26T15:25:15.896Z,5.03
2022-11-26T15:28:06.226Z,5.10
2022-11-26T15:30:56.718Z,6.37
2022-11-26T15:33:47.073Z,5.43
2022-11-26T15:36:35.567Z,5.00
2022-11-26T15:39:29.496Z,6.57
2022-11-26T15:42:28.243Z,5.07
2022-11-26T15:45:18.296Z,6.40
2022-11-26T15:48:07.543Z,5.20
2022-11-26T15:50:58.740Z,5.27
2022-11-26T15:53:48.494Z,5.40
2022-11-26T15:56:38.781Z,6.10
2022-11-26T15:59:28.498Z,6.67
2022-11-26T16:02:20.534Z,8.40
2022-11-26T16:05:23.526Z,9.30
2022-11-26T16:08:25.677Z,8.63
2022-11-26T16:11:21.440Z,7.47
2022-11-26T16:14:23.673Z,5.53
2022-11-26T16:17:14.078Z,5.70
2022-11-26T16:20:03.341Z,5.90
2022-11-26T16:22:53.420Z,8.27
2022-11-26T16:25:43.326Z,7.57
2022-11-26T16:28:31.760Z,7.70
2022-11-26T16:31:20.293Z,9.00
2022-11-26T16:34:09.606Z,7.33
2022-11-26T16:37:02.985Z,10.50
2022-11-26T16:39:52.710Z,9.03
2022-11-26T16:42:42.543Z,8.50
2022-11-26T16:45:30.957Z,8.07
2022-11-26T16:48:24.475Z,8.20
2022-11-26T16:51:13.165Z,11.53
2022-11-26T16:54:01.615Z,14.27
2022-11-26T16:56:53.321Z,14.60
2022-11-26T16:59:48.379Z,13.00
2022-11-26T17:02:36.983Z,10.93
2022-11-26T17:05:25.552Z,10.50
2022-11-26T17:08:14.119Z,8.93
2022-11-26T17:11:02.562Z,12.57
2022-11-26T17:13:51.314Z,11.90
2022-11-26T17:16:41.900Z,12.73
2022-11-26T17:19:30.450Z,10.63
2022-11-26T17:22:20.149Z,13.63
2022-11-26T17:25:10.429Z,13.30
2022-11-26T17:27:58.978Z,14.73
2022-11-26T17:30:47.603Z,16.10
2022-11-26T17:33:37.496Z,14.60
2022-11-26T17:36:25.982Z,18.70
2022-11-26T17:39:14.448Z,11.60
2022-11-26T17:42:02.887Z,10.40
2022-11-26T17:44:51.568Z,10.60
2022-11-26T17:47:40.414Z,11.33
2022-11-26T17:50:31.531Z,12.90
2022-11-26T17:53:20.002Z,12.00
2022-11-26T17:56:16.429Z,12.63
2022-11-26T17:59:04.964Z,12.83
2022-11-26T18:01:53.455Z,18.57
2022-11-26T18:04:42.071Z,20.90
2022-11-26T18:07:31.902Z,21.53
2022-11-26T18:10:22.056Z,22.40
2022-11-26T18:13:10.595Z,21.03
2022-11-26T18:16:00.257Z,22.60
2022-11-26T18:18:48.749Z,17.00
2022-11-26T18:21:37.471Z,19.47
2022-11-26T18:24:27.293Z,17.80
2022-11-26T18:27:15.776Z,16.23
2022-11-26T18:30:04.749Z,18.80
2022-11-26T18:32:53.285Z,19.20
2022-11-26T18:35:42.077Z,20.57
2022-11-26T18:38:33.037Z,17.30
2022-11-26T18:41:23.193Z,20.50
2022-11-26T18:44:11.980Z,18.60
2022-11-26T18:47:02.510Z,20.50
2022-11-26T18:49:53.978Z,20.57
2022-11-26T18:52:42.500Z,20.63
2022-11-26T18:55:30.922Z,20.40
2022-11-26T18:58:21.441Z,22.70
2022-11-26T19:01:14.017Z,23.27
2022-11-26T19:04:02.508Z,26.97
2022-11-26T19:06:50.946Z,27.40
2022-11-26T19:09:39.734Z,27.00
2022-11-26T19:12:28.273Z,25.47
2022-11-26T19:15:19.997Z,24.93
2022-11-26T19:18:08.483Z,25.33
2022-11-26T19:20:57.322Z,24.17
2022-11-26T19:23:45.987Z,23.00
2022-11-26T19:26:34.775Z,23.90
2022-11-26T19:29:23.421Z,21.63
2022-11-26T19:32:13.252Z,23.50
2022-11-26T19:35:05.814Z,23.10
2022-11-26T19:37:54.799Z,22.30
2022-11-26T19:40:43.289Z,21.93
2022-11-26T19:43:34.865Z,23.17
2022-11-26T19:46:25.733Z,28.63
2022-11-26T19:49:16.134Z,29.37
2022-11-26T19:52:04.783Z,21.77
2022-11-26T19:54:53.309Z,22.30
2022-11-26T19:57:41.763Z,20.03
2022-11-26T20:00:30.186Z,19.90
2022-11-26T20:03:18.951Z,20.10
2022-11-26T20:06:15.093Z,22.07
2022-11-26T20:09:05.065Z,20.00
2022-11-26T20:11:53.623Z,19.80
2022-11-26T20:14:42.093Z,17.67
2022-11-26T20:17:30.587Z,20.57
2022-11-26T20:20:19.241Z,20.53
2022-11-26T20:23:09.131Z,21.53
2022-11-26T20:25:57.774Z,21.90
2022-11-26T20:28:46.509Z,21.43
2022-11-26T20:31:36.020Z,20.40
2022-11-26T20:34:27.778Z,21.60
2022-11-26T20:37:16.391Z,20.80
2022-11-26T20:40:07.855Z,22.93
2022-11-26T20:42:56.573Z,19.70
2022-11-26T20:45:45.140Z,21.10
2022-11-26T20:48:34.950Z,20.40
2022-11-26T20:51:23.576Z,20.70
2022-11-26T20:54:12.100Z,21.83
2022-11-26T20:57:02.126Z,21.10
2022-11-26T20:59:51.661Z,19.13
2022-11-26T21:02:40.303Z,22.00
2022-11-26T21:05:28.850Z,19.77
2022-11-26T21:08:17.791Z,22.00
2022-11-26T21:11:07.096Z,21.30
2022-11-26T21:13:58.604Z,21.03
2022-11-26T21:16:47.258Z,20.20
2022-11-26T21:19:35.793Z,22.00
2022-11-26T21:22:24.551Z,22.10
2022-11-26T21:25:13.015Z,23.77
2022-11-26T21:28:01.474Z,25.63
2022-11-26T21:30:53.056Z,22.27
2022-11-26T21:33:41.591Z,22.40
2022-11-26T21:36:31.631Z,22.27
2022-11-26T21:39:20.187Z,22.70
2022-11-26T21:42:08.882Z,22.60
2022-11-26T21:44:57.400Z,23.60
2022-11-26T21:47:47.598Z,24.20
2022-11-26T21:50:36.181Z,22.27
2022-11-26T21:53:25.008Z,21.67
2022-11-26T21:56:15.757Z,24.50
2022-11-26T21:59:04.237Z,27.33
2022-11-26T22:01:52.768Z,25.40
2022-11-26T22:04:42.925Z,25.90
2022-11-26T22:07:31.555Z,23.67
2022-11-26T22:10:20.249Z,24.00
2022-11-26T22:13:08.736Z,23.80
2022-11-26T22:15:59.967Z,24.43
2022-11-26T22:18:48.797Z,27.07
2022-11-26T22:21:40.082Z,27.80
2022-11-26T22:24:28.537Z,26.60
2022-11-26T22:27:17.031Z,25.23
2022-11-26T22:30:06.967Z,24.27
2022-11-26T22:32:55.429Z,26.20
2022-11-26T22:35:43.889Z,25.50
2022-11-26T22:38:34.187Z,24.77
2022-11-26T22:41:23.963Z,25.83
2022-11-26T22:44:13.331Z,23.43
2022-11-26T22:47:01.795Z,26.90
2022-11-26T22:49:50.295Z,27.73
2022-11-26T22:52:38.868Z,26.50
2022-11-26T22:55:29.206Z,27.80
2022-11-26T22:58:17.769Z,23.97
2022-11-26T23:01:08.384Z,26.80
2022-11-26T23:03:57.832Z,25.07
2022-11-26T23:06:46.579Z,23.97
2022-11-26T23:09:35.149Z,22.90
2022-11-26T23:12:24.982Z,21.80
2022-11-26T23:15:13.428Z,23.37
2022-11-26T23:18:01.846Z,22.53
2022-11-26T23:20:50.320Z,23.03
2022-11-26T23:23:39.941Z,23.60
2022-11-26T23:26:30.548Z,21.77
2022-11-26T23:29:20.353Z,22.87
2022-11-26T23:32:08.891Z,22.83
2022-11-26T23:34:57.452Z,22.93
2022-11-26T23:37:45.918Z,22.67
2022-11-26T23:40:34.379Z,22.00
2022-11-26T23:43:22.881Z,23.97
2022-11-26T23:46:15.399Z,23.37
2022-11-26T23:49:04.083Z,27.10
2022-11-26T23:51:52.564Z,22.77
2022-11-26T23:54:41.097Z,23.90
2022-11-26T23:57:29.619Z,24.30
